sensor_id;sensor_type;location;lat;lon;timestamp;P1;durP1;ratioP1;P2;durP2;ratioP2
9465;SDS011;4771;48.726;9.006;2022-09-13T00:01:06;3.95;;;1.58;;
9465;SDS011;4771;48.726;9.006;2022-09-13T00:03:35;1.92;;;1.60;;
9465;SDS011;4771;48.726;9.006;2022-09-13T00:06:08;5.60;;;1.75;;
9465;SDS011;4771;48.726;9.006;2022-09-13T00:08:37;1.77;;;1.50;;
9465;SDS011;4771;48.726;9.006;2022-09-13T00:11:04;1.98;;;1.42;;
9465;SDS011;4771;48.726;9.006;2022-09-13T00:13:31;3.38;;;2.45;;
9465;SDS011;4771;48.726;9.006;2022-09-13T00:15:58;2.72;;;1.63;;
9465;SDS011;4771;48.726;9.006;2022-09-13T00:18:27;3.28;;;1.73;;
9465;SDS011;4771;48.726;9.006;2022-09-13T00:21:04;2.58;;;1.70;;
9465;SDS011;4771;48.726;9.006;2022-09-13T00:23:32;3.13;;;1.50;;
9465;SDS011;4771;48.726;9.006;2022-09-13T00:26:06;1.90;;;1.55;;
9465;SDS011;4771;48.726;9.006;2022-09-13T00:28:34;1.90;;;1.60;;
9465;SDS011;4771;48.726;9.006;2022-09-13T00:31:02;1.70;;;1.60;;
9465;SDS011;4771;48.726;9.006;2022-09-13T00:33:30;5.35;;;1.70;;
9465;SDS011;4771;48.726;9.006;2022-09-13T00:35:57;3.40;;;1.73;;
9465;SDS011;4771;48.726;9.006;2022-09-13T00:38:29;2.85;;;1.50;;
9465;SDS011;4771;48.726;9.006;2022-09-13T00:40:56;1.70;;;1.60;;
9465;SDS011;4771;48.726;9.006;2022-09-13T00:43:39;2.10;;;1.70;;
9465;SDS011;4771;48.726;9.006;2022-09-13T00:46:07;2.17;;;1.70;;
9465;SDS011;4771;48.726;9.006;2022-09-13T00:48:36;2.70;;;1.90;;
9465;SDS011;4771;48.726;9.006;2022-09-13T00:51:03;4.93;;;1.98;;
9465;SDS011;4771;48.726;9.006;2022-09-13T00:53:35;3.30;;;1.75;;
9465;SDS011;4771;48.726;9.006;2022-09-13T00:56:06;1.52;;;1.42;;
9465;SDS011;4771;48.726;9.006;2022-09-13T00:58:37;1.70;;;1.60;;
9465;SDS011;4771;48.726;9.006;2022-09-13T01:01:09;2.22;;;1.55;;
9465;SDS011;4771;48.726;9.006;2022-09-13T01:03:38;2.03;;;1.83;;
9465;SDS011;4771;48.726;9.006;2022-09-13T01:06:09;3.83;;;1.92;;
9465;SDS011;4771;48.726;9.006;2022-09-13T01:08:39;2.40;;;1.80;;
9465;SDS011;4771;48.726;9.006;2022-09-13T01:11:09;2.40;;;1.88;;
9465;SDS011;4771;48.726;9.006;2022-09-13T01:13:39;3.00;;;1.90;;
9465;SDS011;4771;48.726;9.006;2022-09-13T01:16:07;3.97;;;1.80;;
9465;SDS011;4771;48.726;9.006;2022-09-13T01:18:34;2.40;;;1.98;;
9465;SDS011;4771;48.726;9.006;2022-09-13T01:21:07;4.00;;;1.80;;
9465;SDS011;4771;48.726;9.006;2022-09-13T01:27:11;4.35;;;2.15;;
9465;SDS011;4771;48.726;9.006;2022-09-13T01:30:05;3.55;;;2.00;;
9465;SDS011;4771;48.726;9.006;2022-09-13T01:35:28;4.25;;;2.05;;
9465;SDS011;4771;48.726;9.006;2022-09-13T01:38:05;2.15;;;1.80;;
9465;SDS011;4771;48.726;9.006;2022-09-13T01:40:49;5.13;;;1.90;;
9465;SDS011;4771;48.726;9.006;2022-09-13T01:43:30;4.10;;;2.00;;
9465;SDS011;4771;48.726;9.006;2022-09-13T01:46:07;2.60;;;2.00;;
9465;SDS011;4771;48.726;9.006;2022-09-13T01:48:46;2.42;;;2.05;;
9465;SDS011;4771;48.726;9.006;2022-09-13T01:51:22;4.80;;;2.00;;
9465;SDS011;4771;48.726;9.006;2022-09-13T01:53:56;3.45;;;1.83;;
9465;SDS011;4771;48.726;9.006;2022-09-13T01:56:32;2.78;;;1.80;;
9465;SDS011;4771;48.726;9.006;2022-09-13T01:59:05;4.18;;;2.10;;
9465;SDS011;4771;48.726;9.006;2022-09-13T02:01:41;4.57;;;2.00;;
9465;SDS011;4771;48.726;9.006;2022-09-13T02:04:14;3.13;;;1.90;;
9465;SDS011;4771;48.726;9.006;2022-09-13T02:06:46;2.35;;;2.10;;
9465;SDS011;4771;48.726;9.006;2022-09-13T02:09:18;2.45;;;1.92;;
9465;SDS011;4771;48.726;9.006;2022-09-13T02:11:47;2.42;;;1.90;;
9465;SDS011;4771;48.726;9.006;2022-09-13T02:14:19;2.67;;;2.05;;
9465;SDS011;4771;48.726;9.006;2022-09-13T02:16:52;3.45;;;2.20;;
9465;SDS011;4771;48.726;9.006;2022-09-13T02:19:23;2.53;;;1.92;;
9465;SDS011;4771;48.726;9.006;2022-09-13T02:21:58;3.67;;;2.05;;
9465;SDS011;4771;48.726;9.006;2022-09-13T02:24:29;3.33;;;1.90;;
9465;SDS011;4771;48.726;9.006;2022-09-13T02:26:58;2.22;;;1.90;;
9465;SDS011;4771;48.726;9.006;2022-09-13T02:29:30;3.08;;;2.15;;
9465;SDS011;4771;48.726;9.006;2022-09-13T02:32:04;3.00;;;2.08;;
9465;SDS011;4771;48.726;9.006;2022-09-13T02:34:37;5.28;;;2.38;;
9465;SDS011;4771;48.726;9.006;2022-09-13T02:37:08;4.95;;;2.05;;
9465;SDS011;4771;48.726;9.006;2022-09-13T02:39:39;4.22;;;2.25;;
9465;SDS011;4771;48.726;9.006;2022-09-13T02:42:11;2.95;;;1.95;;
9465;SDS011;4771;48.726;9.006;2022-09-13T02:44:45;2.78;;;2.45;;
9465;SDS011;4771;48.726;9.006;2022-09-13T02:47:22;3.72;;;2.13;;
9465;SDS011;4771;48.726;9.006;2022-09-13T02:50:02;3.03;;;1.92;;
9465;SDS011;4771;48.726;9.006;2022-09-13T02:52:37;3.25;;;2.05;;
9465;SDS011;4771;48.726;9.006;2022-09-13T02:55:15;3.72;;;2.20;;
9465;SDS011;4771;48.726;9.006;2022-09-13T02:57:49;6.32;;;2.00;;
9465;SDS011;4771;48.726;9.006;2022-09-13T03:00:22;2.45;;;2.15;;
9465;SDS011;4771;48.726;9.006;2022-09-13T03:02:50;3.20;;;2.22;;
9465;SDS011;4771;48.726;9.006;2022-09-13T03:05:21;2.95;;;2.05;;
9465;SDS011;4771;48.726;9.006;2022-09-13T03:07:48;6.00;;;2.42;;
9465;SDS011;4771;48.726;9.006;2022-09-13T03:10:16;5.03;;;2.42;;
9465;SDS011;4771;48.726;9.006;2022-09-13T03:12:52;2.70;;;2.38;;
9465;SDS011;4771;48.726;9.006;2022-09-13T03:15:34;3.30;;;2.50;;
9465;SDS011;4771;48.726;9.006;2022-09-13T03:18:20;3.00;;;2.63;;
9465;SDS011;4771;48.726;9.006;2022-09-13T03:21:00;3.25;;;2.42;;
9465;SDS011;4771;48.726;9.006;2022-09-13T03:23:39;2.60;;;2.40;;
9465;SDS011;4771;48.726;9.006;2022-09-13T03:26:22;4.40;;;2.55;;
9465;SDS011;4771;48.726;9.006;2022-09-13T03:29:05;4.25;;;2.55;;
9465;SDS011;4771;48.726;9.006;2022-09-13T03:31:48;3.58;;;2.60;;
9465;SDS011;4771;48.726;9.006;2022-09-13T03:34:25;3.30;;;2.50;;
9465;SDS011;4771;48.726;9.006;2022-09-13T03:37:00;3.47;;;2.40;;
9465;SDS011;4771;48.726;9.006;2022-09-13T03:39:33;3.92;;;2.60;;
9465;SDS011;4771;48.726;9.006;2022-09-13T03:42:09;4.10;;;2.65;;
9465;SDS011;4771;48.726;9.006;2022-09-13T03:44:42;4.07;;;2.53;;
9465;SDS011;4771;48.726;9.006;2022-09-13T03:47:12;3.22;;;2.30;;
9465;SDS011;4771;48.726;9.006;2022-09-13T03:49:43;3.85;;;2.60;;
9465;SDS011;4771;48.726;9.006;2022-09-13T03:52:10;3.63;;;2.63;;
9465;SDS011;4771;48.726;9.006;2022-09-13T03:54:38;4.55;;;2.58;;
9465;SDS011;4771;48.726;9.006;2022-09-13T03:57:06;2.80;;;2.20;;
9465;SDS011;4771;48.726;9.006;2022-09-13T03:59:38;5.45;;;2.78;;
9465;SDS011;4771;48.726;9.006;2022-09-13T04:02:07;2.95;;;2.53;;
9465;SDS011;4771;48.726;9.006;2022-09-13T04:04:35;3.58;;;2.47;;
9465;SDS011;4771;48.726;9.006;2022-09-13T04:07:04;4.35;;;2.72;;
9465;SDS011;4771;48.726;9.006;2022-09-13T04:09:31;4.75;;;2.85;;
9465;SDS011;4771;48.726;9.006;2022-09-13T04:11:58;4.47;;;2.90;;
9465;SDS011;4771;48.726;9.006;2022-09-13T04:14:25;6.55;;;2.75;;
9465;SDS011;4771;48.726;9.006;2022-09-13T04:16:52;6.05;;;2.92;;
9465;SDS011;4771;48.726;9.006;2022-09-13T04:19:20;3.17;;;2.70;;
9465;SDS011;4771;48.726;9.006;2022-09-13T04:21:48;5.35;;;2.88;;
9465;SDS011;4771;48.726;9.006;2022-09-13T04:24:17;3.45;;;2.80;;
9465;SDS011;4771;48.726;9.006;2022-09-13T04:26:47;3.75;;;2.83;;
9465;SDS011;4771;48.726;9.006;2022-09-13T04:29:15;4.00;;;2.88;;
9465;SDS011;4771;48.726;9.006;2022-09-13T04:31:43;7.47;;;2.75;;
9465;SDS011;4771;48.726;9.006;2022-09-13T04:34:10;5.30;;;3.17;;
9465;SDS011;4771;48.726;9.006;2022-09-13T04:36:37;3.50;;;3.20;;
9465;SDS011;4771;48.726;9.006;2022-09-13T04:39:04;4.80;;;3.00;;
9465;SDS011;4771;48.726;9.006;2022-09-13T04:41:32;4.90;;;2.92;;
9465;SDS011;4771;48.726;9.006;2022-09-13T04:43:59;5.85;;;3.05;;
9465;SDS011;4771;48.726;9.006;2022-09-13T04:46:27;4.50;;;2.55;;
9465;SDS011;4771;48.726;9.006;2022-09-13T04:48:54;5.60;;;3.08;;
9465;SDS011;4771;48.726;9.006;2022-09-13T04:51:21;4.65;;;3.20;;
9465;SDS011;4771;48.726;9.006;2022-09-13T04:53:51;3.60;;;2.75;;
9465;SDS011;4771;48.726;9.006;2022-09-13T04:56:19;5.65;;;3.13;;
9465;SDS011;4771;48.726;9.006;2022-09-13T04:58:49;5.75;;;3.40;;
9465;SDS011;4771;48.726;9.006;2022-09-13T05:01:16;3.05;;;2.75;;
9465;SDS011;4771;48.726;9.006;2022-09-13T05:03:43;4.82;;;2.80;;
9465;SDS011;4771;48.726;9.006;2022-09-13T05:06:10;4.05;;;2.67;;
9465;SDS011;4771;48.726;9.006;2022-09-13T05:08:39;3.63;;;2.85;;
9465;SDS011;4771;48.726;9.006;2022-09-13T05:11:06;8.05;;;3.08;;
9465;SDS011;4771;48.726;9.006;2022-09-13T05:13:33;5.22;;;3.00;;
9465;SDS011;4771;48.726;9.006;2022-09-13T05:16:02;3.80;;;2.92;;
9465;SDS011;4771;48.726;9.006;2022-09-13T05:18:31;4.78;;;3.40;;
9465;SDS011;4771;48.726;9.006;2022-09-13T05:21:00;3.10;;;2.80;;
9465;SDS011;4771;48.726;9.006;2022-09-13T05:23:29;5.13;;;3.20;;
9465;SDS011;4771;48.726;9.006;2022-09-13T05:25:57;5.97;;;2.90;;
9465;SDS011;4771;48.726;9.006;2022-09-13T05:28:26;4.53;;;3.00;;
9465;SDS011;4771;48.726;9.006;2022-09-13T05:30:55;4.40;;;3.40;;
9465;SDS011;4771;48.726;9.006;2022-09-13T05:33:24;5.13;;;3.13;;
9465;SDS011;4771;48.726;9.006;2022-09-13T05:35:51;5.00;;;3.20;;
9465;SDS011;4771;48.726;9.006;2022-09-13T05:38:19;4.40;;;3.05;;
9465;SDS011;4771;48.726;9.006;2022-09-13T05:40:46;4.78;;;3.28;;
9465;SDS011;4771;48.726;9.006;2022-09-13T05:43:14;5.00;;;3.13;;
9465;SDS011;4771;48.726;9.006;2022-09-13T05:45:41;4.88;;;3.10;;
9465;SDS011;4771;48.726;9.006;2022-09-13T05:48:07;5.57;;;3.30;;
9465;SDS011;4771;48.726;9.006;2022-09-13T05:50:39;7.88;;;3.00;;
9465;SDS011;4771;48.726;9.006;2022-09-13T05:53:06;3.80;;;3.05;;
9465;SDS011;4771;48.726;9.006;2022-09-13T05:55:33;5.25;;;3.45;;
9465;SDS011;4771;48.726;9.006;2022-09-13T05:58:00;6.93;;;3.55;;
9465;SDS011;4771;48.726;9.006;2022-09-13T06:00:28;3.97;;;2.90;;
9465;SDS011;4771;48.726;9.006;2022-09-13T06:02:55;4.85;;;3.15;;
9465;SDS011;4771;48.726;9.006;2022-09-13T06:05:23;6.20;;;3.60;;
9465;SDS011;4771;48.726;9.006;2022-09-13T06:07:51;8.85;;;3.40;;
9465;SDS011;4771;48.726;9.006;2022-09-13T06:10:18;5.38;;;3.55;;
9465;SDS011;4771;48.726;9.006;2022-09-13T06:12:45;7.53;;;3.03;;
9465;SDS011;4771;48.726;9.006;2022-09-13T06:15:12;5.13;;;3.22;;
9465;SDS011;4771;48.726;9.006;2022-09-13T06:17:39;10.00;;;3.80;;
9465;SDS011;4771;48.726;9.006;2022-09-13T06:20:07;7.20;;;3.15;;
9465;SDS011;4771;48.726;9.006;2022-09-13T06:22:35;6.18;;;3.10;;
9465;SDS011;4771;48.726;9.006;2022-09-13T06:25:03;6.28;;;3.20;;
9465;SDS011;4771;48.726;9.006;2022-09-13T06:27:31;9.10;;;3.40;;
9465;SDS011;4771;48.726;9.006;2022-09-13T06:29:58;7.15;;;3.17;;
9465;SDS011;4771;48.726;9.006;2022-09-13T06:32:25;5.88;;;3.03;;
9465;SDS011;4771;48.726;9.006;2022-09-13T06:34:52;6.68;;;2.90;;
9465;SDS011;4771;48.726;9.006;2022-09-13T06:37:19;7.13;;;3.38;;
9465;SDS011;4771;48.726;9.006;2022-09-13T06:39:46;7.05;;;3.83;;
9465;SDS011;4771;48.726;9.006;2022-09-13T06:42:14;9.05;;;3.60;;
9465;SDS011;4771;48.726;9.006;2022-09-13T06:44:41;6.28;;;3.80;;
9465;SDS011;4771;48.726;9.006;2022-09-13T06:47:10;7.68;;;3.90;;
9465;SDS011;4771;48.726;9.006;2022-09-13T06:49:37;8.98;;;4.13;;
9465;SDS011;4771;48.726;9.006;2022-09-13T06:52:04;9.63;;;4.13;;
9465;SDS011;4771;48.726;9.006;2022-09-13T06:54:31;8.32;;;3.95;;
9465;SDS011;4771;48.726;9.006;2022-09-13T06:56:58;6.25;;;3.80;;
9465;SDS011;4771;48.726;9.006;2022-09-13T06:59:28;6.63;;;3.75;;
9465;SDS011;4771;48.726;9.006;2022-09-13T07:01:55;4.88;;;3.20;;
9465;SDS011;4771;48.726;9.006;2022-09-13T07:04:22;6.53;;;3.63;;
9465;SDS011;4771;48.726;9.006;2022-09-13T07:06:49;5.15;;;3.67;;
9465;SDS011;4771;48.726;9.006;2022-09-13T07:09:16;6.68;;;3.63;;
9465;SDS011;4771;48.726;9.006;2022-09-13T07:11:45;6.70;;;4.10;;
9465;SDS011;4771;48.726;9.006;2022-09-13T07:14:14;10.05;;;4.00;;
9465;SDS011;4771;48.726;9.006;2022-09-13T07:16:44;6.28;;;4.00;;
9465;SDS011;4771;48.726;9.006;2022-09-13T07:19:12;4.97;;;3.10;;
9465;SDS011;4771;48.726;9.006;2022-09-13T07:21:40;4.47;;;3.47;;
9465;SDS011;4771;48.726;9.006;2022-09-13T07:24:08;8.60;;;3.72;;
9465;SDS011;4771;48.726;9.006;2022-09-13T07:26:35;7.95;;;3.67;;
9465;SDS011;4771;48.726;9.006;2022-09-13T07:29:04;7.72;;;4.00;;
9465;SDS011;4771;48.726;9.006;2022-09-13T07:31:33;6.28;;;3.67;;
9465;SDS011;4771;48.726;9.006;2022-09-13T07:34:03;6.32;;;3.55;;
9465;SDS011;4771;48.726;9.006;2022-09-13T07:36:32;6.13;;;3.60;;
9465;SDS011;4771;48.726;9.006;2022-09-13T07:39:00;8.32;;;3.95;;
9465;SDS011;4771;48.726;9.006;2022-09-13T07:41:28;4.22;;;3.65;;
9465;SDS011;4771;48.726;9.006;2022-09-13T07:43:57;7.35;;;3.80;;
9465;SDS011;4771;48.726;9.006;2022-09-13T07:46:26;9.63;;;4.13;;
9465;SDS011;4771;48.726;9.006;2022-09-13T07:48:56;4.85;;;4.10;;
9465;SDS011;4771;48.726;9.006;2022-09-13T07:51:26;6.97;;;4.05;;
9465;SDS011;4771;48.726;9.006;2022-09-13T07:53:54;4.93;;;3.72;;
9465;SDS011;4771;48.726;9.006;2022-09-13T07:56:23;7.43;;;3.90;;
9465;SDS011;4771;48.726;9.006;2022-09-13T07:58:51;8.43;;;3.92;;
9465;SDS011;4771;48.726;9.006;2022-09-13T08:01:20;6.75;;;3.47;;
9465;SDS011;4771;48.726;9.006;2022-09-13T08:03:49;6.15;;;3.47;;
9465;SDS011;4771;48.726;9.006;2022-09-13T08:06:17;6.40;;;3.30;;
9465;SDS011;4771;48.726;9.006;2022-09-13T08:08:45;4.22;;;3.10;;
9465;SDS011;4771;48.726;9.006;2022-09-13T08:11:14;5.50;;;2.97;;
9465;SDS011;4771;48.726;9.006;2022-09-13T08:13:43;6.60;;;2.97;;
9465;SDS011;4771;48.726;9.006;2022-09-13T08:16:10;3.22;;;2.80;;
9465;SDS011;4771;48.726;9.006;2022-09-13T08:18:41;4.78;;;2.50;;
9465;SDS011;4771;48.726;9.006;2022-09-13T08:21:10;5.78;;;2.28;;
9465;SDS011;4771;48.726;9.006;2022-09-13T08:23:37;5.18;;;2.47;;
9465;SDS011;4771;48.726;9.006;2022-09-13T08:26:06;5.70;;;2.35;;
9465;SDS011;4771;48.726;9.006;2022-09-13T08:28:34;4.03;;;2.58;;
9465;SDS011;4771;48.726;9.006;2022-09-13T08:31:02;4.88;;;2.30;;
9465;SDS011;4771;48.726;9.006;2022-09-13T08:33:29;4.25;;;1.90;;
9465;SDS011;4771;48.726;9.006;2022-09-13T08:35:57;6.47;;;2.10;;
9465;SDS011;4771;48.726;9.006;2022-09-13T08:38:24;4.65;;;1.83;;
9465;SDS011;4771;48.726;9.006;2022-09-13T08:40:52;4.43;;;2.08;;
9465;SDS011;4771;48.726;9.006;2022-09-13T08:43:26;6.20;;;2.30;;
9465;SDS011;4771;48.726;9.006;2022-09-13T08:46:09;3.10;;;2.05;;
9465;SDS011;4771;48.726;9.006;2022-09-13T08:48:46;3.85;;;1.83;;
9465;SDS011;4771;48.726;9.006;2022-09-13T08:51:21;5.20;;;2.05;;
9465;SDS011;4771;48.726;9.006;2022-09-13T08:53:53;7.38;;;1.73;;
9465;SDS011;4771;48.726;9.006;2022-09-13T08:56:22;4.93;;;1.67;;
9465;SDS011;4771;48.726;9.006;2022-09-13T08:59:00;4.75;;;1.48;;
9465;SDS011;4771;48.726;9.006;2022-09-13T09:01:39;2.83;;;1.30;;
9465;SDS011;4771;48.726;9.006;2022-09-13T09:04:19;4.30;;;1.80;;
9465;SDS011;4771;48.726;9.006;2022-09-13T09:07:03;5.25;;;1.42;;
9465;SDS011;4771;48.726;9.006;2022-09-13T09:09:34;3.55;;;1.60;;
9465;SDS011;4771;48.726;9.006;2022-09-13T09:12:10;2.50;;;1.20;;
9465;SDS011;4771;48.726;9.006;2022-09-13T09:14:46;1.67;;;1.17;;
9465;SDS011;4771;48.726;9.006;2022-09-13T09:17:23;3.72;;;1.20;;
9465;SDS011;4771;48.726;9.006;2022-09-13T09:19:53;1.70;;;1.00;;
9465;SDS011;4771;48.726;9.006;2022-09-13T09:22:28;1.45;;;1.00;;
9465;SDS011;4771;48.726;9.006;2022-09-13T09:25:00;3.35;;;1.15;;
9465;SDS011;4771;48.726;9.006;2022-09-13T09:27:29;1.83;;;1.30;;
9465;SDS011;4771;48.726;9.006;2022-09-13T09:29:57;2.45;;;1.30;;
9465;SDS011;4771;48.726;9.006;2022-09-13T09:32:33;1.98;;;1.20;;
9465;SDS011;4771;48.726;9.006;2022-09-13T09:35:15;2.15;;;1.13;;
9465;SDS011;4771;48.726;9.006;2022-09-13T09:37:49;3.65;;;1.13;;
9465;SDS011;4771;48.726;9.006;2022-09-13T09:40:33;3.50;;;1.13;;
9465;SDS011;4771;48.726;9.006;2022-09-13T09:43:08;3.30;;;1.05;;
9465;SDS011;4771;48.726;9.006;2022-09-13T09:45:41;2.75;;;1.27;;
9465;SDS011;4771;48.726;9.006;2022-09-13T09:48:11;1.50;;;1.20;;
9465;SDS011;4771;48.726;9.006;2022-09-13T09:50:45;2.78;;;1.10;;
9465;SDS011;4771;48.726;9.006;2022-09-13T09:53:15;5.32;;;0.95;;
9465;SDS011;4771;48.726;9.006;2022-09-13T09:55:51;3.15;;;1.00;;
9465;SDS011;4771;48.726;9.006;2022-09-13T10:01:15;1.55;;;1.10;;
9465;SDS011;4771;48.726;9.006;2022-09-13T10:03:52;2.58;;;0.95;;
9465;SDS011;4771;48.726;9.006;2022-09-13T10:06:24;2.42;;;1.30;;
9465;SDS011;4771;48.726;9.006;2022-09-13T10:08:54;1.38;;;1.00;;
9465;SDS011;4771;48.726;9.006;2022-09-13T10:11:36;1.10;;;1.00;;
9465;SDS011;4771;48.726;9.006;2022-09-13T10:14:05;2.05;;;1.10;;
9465;SDS011;4771;48.726;9.006;2022-09-13T10:16:33;2.53;;;1.05;;
9465;SDS011;4771;48.726;9.006;2022-09-13T10:19:21;3.83;;;1.17;;
9465;SDS011;4771;48.726;9.006;2022-09-13T10:21:58;1.13;;;0.93;;
9465;SDS011;4771;48.726;9.006;2022-09-13T10:24:29;4.38;;;1.08;;
9465;SDS011;4771;48.726;9.006;2022-09-13T10:26:57;5.53;;;1.30;;
9465;SDS011;4771;48.726;9.006;2022-09-13T10:29:25;2.20;;;1.02;;
9465;SDS011;4771;48.726;9.006;2022-09-13T10:31:54;1.88;;;1.00;;
9465;SDS011;4771;48.726;9.006;2022-09-13T10:34:23;2.13;;;1.10;;
9465;SDS011;4771;48.726;9.006;2022-09-13T10:36:55;4.47;;;1.00;;
9465;SDS011;4771;48.726;9.006;2022-09-13T10:39:25;1.20;;;0.80;;
9465;SDS011;4771;48.726;9.006;2022-09-13T10:41:55;1.08;;;0.95;;
9465;SDS011;4771;48.726;9.006;2022-09-13T10:44:26;1.17;;;1.08;;
9465;SDS011;4771;48.726;9.006;2022-09-13T10:46:59;1.38;;;1.00;;
9465;SDS011;4771;48.726;9.006;2022-09-13T10:49:38;3.42;;;1.10;;
9465;SDS011;4771;48.726;9.006;2022-09-13T10:55:31;1.73;;;1.17;;
9465;SDS011;4771;48.726;9.006;2022-09-13T10:58:11;1.77;;;1.20;;
9465;SDS011;4771;48.726;9.006;2022-09-13T11:00:46;1.27;;;0.90;;
9465;SDS011;4771;48.726;9.006;2022-09-13T11:03:44;1.17;;;1.00;;
9465;SDS011;4771;48.726;9.006;2022-09-13T11:06:25;2.08;;;0.98;;
9465;SDS011;4771;48.726;9.006;2022-09-13T11:08:59;0.95;;;0.90;;
9465;SDS011;4771;48.726;9.006;2022-09-13T11:11:37;1.17;;;0.90;;
9465;SDS011;4771;48.726;9.006;2022-09-13T11:14:14;2.28;;;1.30;;
9465;SDS011;4771;48.726;9.006;2022-09-13T11:16:53;4.40;;;1.00;;
9465;SDS011;4771;48.726;9.006;2022-09-13T11:22:32;2.00;;;1.00;;
9465;SDS011;4771;48.726;9.006;2022-09-13T11:25:11;3.60;;;1.40;;
9465;SDS011;4771;48.726;9.006;2022-09-13T11:27:56;4.97;;;1.10;;
9465;SDS011;4771;48.726;9.006;2022-09-13T11:30:33;2.72;;;1.17;;
9465;SDS011;4771;48.726;9.006;2022-09-13T11:33:21;4.72;;;0.95;;
9465;SDS011;4771;48.726;9.006;2022-09-13T11:36:08;1.40;;;1.00;;
9465;SDS011;4771;48.726;9.006;2022-09-13T11:38:47;2.47;;;0.90;;
9465;SDS011;4771;48.726;9.006;2022-09-13T11:41:24;1.52;;;0.90;;
9465;SDS011;4771;48.726;9.006;2022-09-13T11:44:09;1.35;;;0.95;;
9465;SDS011;4771;48.726;9.006;2022-09-13T11:46:49;2.42;;;0.93;;
9465;SDS011;4771;48.726;9.006;2022-09-13T11:49:30;1.60;;;0.80;;
9465;SDS011;4771;48.726;9.006;2022-09-13T11:52:10;1.85;;;0.95;;
9465;SDS011;4771;48.726;9.006;2022-09-13T11:54:51;1.40;;;1.00;;
9465;SDS011;4771;48.726;9.006;2022-09-13T11:57:28;5.82;;;2.20;;
9465;SDS011;4771;48.726;9.006;2022-09-13T12:00:00;3.45;;;1.58;;
9465;SDS011;4771;48.726;9.006;2022-09-13T12:02:31;1.80;;;1.20;;
9465;SDS011;4771;48.726;9.006;2022-09-13T12:05:06;2.75;;;1.00;;
9465;SDS011;4771;48.726;9.006;2022-09-13T12:07:41;0.88;;;0.77;;
9465;SDS011;4771;48.726;9.006;2022-09-13T12:10:13;1.77;;;1.13;;
9465;SDS011;4771;48.726;9.006;2022-09-13T12:12:43;2.90;;;0.93;;
9465;SDS011;4771;48.726;9.006;2022-09-13T12:15:16;1.10;;;1.00;;
9465;SDS011;4771;48.726;9.006;2022-09-13T12:17:48;2.00;;;1.38;;
9465;SDS011;4771;48.726;9.006;2022-09-13T12:20:23;1.80;;;1.13;;
9465;SDS011;4771;48.726;9.006;2022-09-13T12:23:06;2.45;;;1.25;;
9465;SDS011;4771;48.726;9.006;2022-09-13T12:25:53;3.05;;;1.25;;
9465;SDS011;4771;48.726;9.006;2022-09-13T12:28:33;4.75;;;1.42;;
9465;SDS011;4771;48.726;9.006;2022-09-13T12:31:09;1.88;;;1.35;;
9465;SDS011;4771;48.726;9.006;2022-09-13T12:33:53;3.53;;;1.30;;
9465;SDS011;4771;48.726;9.006;2022-09-13T12:36:30;4.03;;;1.40;;
9465;SDS011;4771;48.726;9.006;2022-09-13T12:39:16;4.70;;;1.50;;
9465;SDS011;4771;48.726;9.006;2022-09-13T12:42:13;5.22;;;1.48;;
9465;SDS011;4771;48.726;9.006;2022-09-13T12:45:06;4.28;;;1.58;;
9465;SDS011;4771;48.726;9.006;2022-09-13T12:47:49;1.80;;;1.20;;
9465;SDS011;4771;48.726;9.006;2022-09-13T12:50:36;2.70;;;1.25;;
9465;SDS011;4771;48.726;9.006;2022-09-13T12:59:32;1.40;;;1.10;;
9465;SDS011;4771;48.726;9.006;2022-09-13T13:02:25;5.22;;;1.48;;
9465;SDS011;4771;48.726;9.006;2022-09-13T13:04:55;2.10;;;1.60;;
9465;SDS011;4771;48.726;9.006;2022-09-13T13:07:25;2.30;;;1.40;;
9465;SDS011;4771;48.726;9.006;2022-09-13T13:09:54;4.18;;;1.23;;
9465;SDS011;4771;48.726;9.006;2022-09-13T13:12:27;2.85;;;1.20;;
9465;SDS011;4771;48.726;9.006;2022-09-13T13:14:58;2.05;;;1.20;;
9465;SDS011;4771;48.726;9.006;2022-09-13T13:17:35;2.25;;;1.10;;
9465;SDS011;4771;48.726;9.006;2022-09-13T13:23:21;1.58;;;1.17;;
9465;SDS011;4771;48.726;9.006;2022-09-13T13:25:58;1.50;;;1.10;;
9465;SDS011;4771;48.726;9.006;2022-09-13T13:28:51;3.45;;;1.58;;
9465;SDS011;4771;48.726;9.006;2022-09-13T13:31:41;3.15;;;1.60;;
9465;SDS011;4771;48.726;9.006;2022-09-13T13:37:24;2.72;;;1.08;;
9465;SDS011;4771;48.726;9.006;2022-09-13T13:48:53;3.63;;;0.95;;
9465;SDS011;4771;48.726;9.006;2022-09-13T13:51:25;2.45;;;1.30;;
9465;SDS011;4771;48.726;9.006;2022-09-13T13:53:58;4.82;;;1.20;;
9465;SDS011;4771;48.726;9.006;2022-09-13T13:56:46;1.10;;;1.00;;
9465;SDS011;4771;48.726;9.006;2022-09-13T13:59:24;2.30;;;1.10;;
9465;SDS011;4771;48.726;9.006;2022-09-13T14:01:55;3.97;;;1.10;;
9465;SDS011;4771;48.726;9.006;2022-09-13T14:10:47;3.30;;;1.10;;
9465;SDS011;4771;48.726;9.006;2022-09-13T14:13:23;1.58;;;1.05;;
9465;SDS011;4771;48.726;9.006;2022-09-13T14:16:03;1.45;;;1.20;;
9465;SDS011;4771;48.726;9.006;2022-09-13T14:18:49;2.05;;;0.68;;
9465;SDS011;4771;48.726;9.006;2022-09-13T14:21:28;3.85;;;1.02;;
9465;SDS011;4771;48.726;9.006;2022-09-13T14:24:14;0.90;;;0.60;;
9465;SDS011;4771;48.726;9.006;2022-09-13T14:26:44;0.82;;;0.73;;
9465;SDS011;4771;48.726;9.006;2022-09-13T14:29:14;1.13;;;0.68;;
9465;SDS011;4771;48.726;9.006;2022-09-13T14:31:44;3.00;;;1.00;;
9465;SDS011;4771;48.726;9.006;2022-09-13T14:34:20;0.98;;;0.80;;
9465;SDS011;4771;48.726;9.006;2022-09-13T14:36:52;2.67;;;1.15;;
9465;SDS011;4771;48.726;9.006;2022-09-13T14:39:21;1.23;;;0.95;;
9465;SDS011;4771;48.726;9.006;2022-09-13T14:41:48;1.10;;;0.80;;
9465;SDS011;4771;48.726;9.006;2022-09-13T14:44:24;0.95;;;0.75;;
9465;SDS011;4771;48.726;9.006;2022-09-13T14:46:53;1.10;;;1.00;;
9465;SDS011;4771;48.726;9.006;2022-09-13T14:49:29;1.40;;;0.80;;
9465;SDS011;4771;48.726;9.006;2022-09-13T14:52:00;1.33;;;1.00;;
9465;SDS011;4771;48.726;9.006;2022-09-13T14:54:32;2.97;;;0.90;;
9465;SDS011;4771;48.726;9.006;2022-09-13T14:57:03;1.65;;;0.90;;
9465;SDS011;4771;48.726;9.006;2022-09-13T14:59:35;6.50;;;1.00;;
9465;SDS011;4771;48.726;9.006;2022-09-13T15:02:13;0.82;;;0.70;;
9465;SDS011;4771;48.726;9.006;2022-09-13T15:04:45;2.47;;;0.80;;
9465;SDS011;4771;48.726;9.006;2022-09-13T15:07:20;1.60;;;0.98;;
9465;SDS011;4771;48.726;9.006;2022-09-13T15:09:49;1.08;;;0.57;;
9465;SDS011;4771;48.726;9.006;2022-09-13T15:12:23;1.05;;;0.82;;
9465;SDS011;4771;48.726;9.006;2022-09-13T15:17:54;2.80;;;0.82;;
9465;SDS011;4771;48.726;9.006;2022-09-13T15:20:24;1.10;;;0.70;;
9465;SDS011;4771;48.726;9.006;2022-09-13T15:22:52;1.02;;;0.75;;
9465;SDS011;4771;48.726;9.006;2022-09-13T15:25:23;0.68;;;0.68;;
9465;SDS011;4771;48.726;9.006;2022-09-13T15:27:52;0.60;;;0.52;;
9465;SDS011;4771;48.726;9.006;2022-09-13T15:30:24;1.08;;;0.90;;
9465;SDS011;4771;48.726;9.006;2022-09-13T15:33:03;12.02;;;6.80;;
9465;SDS011;4771;48.726;9.006;2022-09-13T15:35:35;2.30;;;1.75;;
9465;SDS011;4771;48.726;9.006;2022-09-13T15:38:14;4.07;;;1.42;;
9465;SDS011;4771;48.726;9.006;2022-09-13T15:40:56;3.85;;;2.60;;
9465;SDS011;4771;48.726;9.006;2022-09-13T15:43:26;2.55;;;1.10;;
9465;SDS011;4771;48.726;9.006;2022-09-13T15:45:54;2.85;;;1.20;;
9465;SDS011;4771;48.726;9.006;2022-09-13T15:48:24;1.73;;;1.00;;
9465;SDS011;4771;48.726;9.006;2022-09-13T15:51:05;1.63;;;1.50;;
9465;SDS011;4771;48.726;9.006;2022-09-13T15:53:34;0.77;;;0.70;;
9465;SDS011;4771;48.726;9.006;2022-09-13T15:56:02;0.50;;;0.50;;
9465;SDS011;4771;48.726;9.006;2022-09-13T15:58:30;0.88;;;0.75;;
9465;SDS011;4771;48.726;9.006;2022-09-13T16:00:58;2.75;;;0.80;;
9465;SDS011;4771;48.726;9.006;2022-09-13T16:03:25;1.50;;;0.98;;
9465;SDS011;4771;48.726;9.006;2022-09-13T16:05:52;2.30;;;0.70;;
9465;SDS011;4771;48.726;9.006;2022-09-13T16:08:21;2.05;;;0.90;;
9465;SDS011;4771;48.726;9.006;2022-09-13T16:10:48;2.08;;;0.90;;
9465;SDS011;4771;48.726;9.006;2022-09-13T16:13:16;2.30;;;1.05;;
9465;SDS011;4771;48.726;9.006;2022-09-13T16:15:43;1.35;;;1.00;;
9465;SDS011;4771;48.726;9.006;2022-09-13T16:18:10;1.50;;;1.17;;
9465;SDS011;4771;48.726;9.006;2022-09-13T16:20:37;6.82;;;6.13;;
9465;SDS011;4771;48.726;9.006;2022-09-13T16:23:04;2.70;;;1.95;;
9465;SDS011;4771;48.726;9.006;2022-09-13T16:25:32;2.97;;;1.70;;
9465;SDS011;4771;48.726;9.006;2022-09-13T16:28:00;8.82;;;3.15;;
9465;SDS011;4771;48.726;9.006;2022-09-13T16:30:27;9.30;;;3.80;;
9465;SDS011;4771;48.726;9.006;2022-09-13T16:32:55;7.97;;;2.30;;